Terminal Aerodrome Forecast
Issued by NWS

Home | Current Version | Previous Version | Text Only | Print | Product List | Glossary On
Versions: 1 2 3 4 5 6 7 8 9 10 11 12
000
FTUS45 KRIW 132323
TAFLND
TAF
KLND 132323Z 1400/1424 33006KT 2SM -SN OVC016
     FM140200 34007KT 4SM -SN OVC020
     FM140600 VRB04KT P6SM VCSH OVC030
     FM141100 VRB04KT P6SM SCT030 BKN040
     FM141700 VRB06KT P6SM SCT090=

USA.gov is the U.S. government's official web portal to all federal, state and local government web resources and services.